Paramount Hamilton — 2CWB2 — position and weather

sailwx.info

Track history (hours):
 
Tides and Currents Weather Stations Pressure Air Temp Water Temp Dewpoint Dewpoint Depression Visibility Wind Speed Wind Dir Waves Ship Positions

Paramount Hamilton

Last reported at 2016-Jun-22 22:33 UTC. Time now 2016-Jun-24 22:14 UTC.
Position N 29°13' W 094°34'.

Length 250 m; draft 11.3 m.

Type: Tanker. MMSI: 235076274.

Date/timePositionNaut miles runAvg speedWind from/ knotsBaromVisibWave heightAir tempDewpointWater temp
2016-Jun-22 22:33N 29°13' W 094°34'0 0.0
2016-Jun-22 21:24N 29°13' W 094°34'0 0.1
2016-Jun-22 20:33N 29°13' W 094°34'0 0.0
2016-Jun-22 13:15N 29°13' W 094°34'0 0.0
2016-Jun-22 11:33N 29°13' W 094°34'  
2016-Jun-19 00:23N 29°14' W 093°40'1310.3
2016-Jun-18 23:09N 29°26' W 093°40'1911.7
2016-Jun-18 21:33N 29°42' W 093°51'9 8.6
2016-Jun-18 20:31N 29°49' W 093°58'8 8.1
2016-Jun-18 19:28N 29°56' W 093°52'5 5.3
2016-Jun-18 18:32N 29°60' W 093°56'0 0.2
2016-Jun-18 17:34N 29°60' W 093°56'0 0.0
2016-Jun-18 16:27N 29°60' W 093°56'0 0.0
2016-Jun-18 15:33N 29°60' W 093°56'0 0.0
2016-Jun-18 14:30N 29°60' W 093°56'0 0.0
2016-Jun-18 13:33N 29°60' W 093°56'0 0.0
2016-Jun-18 12:33N 29°60' W 093°56'0 0.0
2016-Jun-18 11:33N 29°60' W 093°56'0 0.0
2016-Jun-18 10:33N 29°60' W 093°56'0 0.0
2016-Jun-18 09:27N 29°60' W 093°56'0 0.0
2016-Jun-18 08:30N 29°60' W 093°56'0 0.0
2016-Jun-18 07:33N 29°60' W 093°56'0 0.0
2016-Jun-18 04:21N 29°60' W 093°56'0 0.0
2016-Jun-18 03:33N 29°60' W 093°56'0 0.0
2016-Jun-18 02:15N 29°60' W 093°56'0 0.0
2016-Jun-18 01:30N 29°60' W 093°56'0 0.0
2016-Jun-18 00:27N 29°60' W 093°56'0 0.0
2016-Jun-17 23:21N 29°60' W 093°56'0 0.0
2016-Jun-17 22:33N 29°60' W 093°56'0 0.0
2016-Jun-17 21:30N 29°60' W 093°56'0 0.0
2016-Jun-17 20:09N 29°60' W 093°56'0 0.0
2016-Jun-17 19:24N 29°60' W 093°56'0 0.0
2016-Jun-17 18:33N 29°60' W 093°56'0 0.0
2016-Jun-17 17:33N 29°60' W 093°56'0 0.0
2016-Jun-17 16:33N 29°60' W 093°56'0 0.0
2016-Jun-17 15:33N 29°60' W 093°56'0 0.0
2016-Jun-17 14:33N 29°60' W 093°56'0 0.0
2016-Jun-17 13:33N 29°60' W 093°56'0 0.0
2016-Jun-17 12:27N 29°59' W 093°56'0 0.0
2016-Jun-17 11:24N 29°60' W 093°56'0 0.0
2016-Jun-17 10:24N 29°60' W 093°56'0 0.0
2016-Jun-17 09:30N 29°60' W 093°56'0 0.0
2016-Jun-17 08:24N 29°60' W 093°56'0 0.0
2016-Jun-17 07:09N 29°60' W 093°56'0 0.0
2016-Jun-17 03:33N 29°60' W 093°56'0 0.0
2016-Jun-17 00:33N 29°60' W 093°56'0 0.0
2016-Jun-16 23:33N 29°60' W 093°56'0 0.0
2016-Jun-16 22:33N 29°60' W 093°56'1 0.6
2016-Jun-16 21:33N 29°59' W 093°55'4 4.4
2016-Jun-16 20:33N 29°56' W 093°52'6 5.8
2016-Jun-16 19:32N 29°51' W 093°57'6 5.9
2016-Jun-16 18:33N 29°46' W 093°55'8 8.0
2016-Jun-16 17:33N 29°39' W 093°50'10 9.9
2016-Jun-16 16:30N 29°31' W 093°42'7 7.4
2016-Jun-16 15:30N 29°24' W 093°39'1 0.7
2016-Jun-16 14:30N 29°24' W 093°38'0 0.0
2016-Jun-16 12:06N 29°24' W 093°38'0 0.0
2016-Jun-16 11:30N 29°24' W 093°38'0 0.0
2016-Jun-16 08:18N 29°24' W 093°38'0 0.0
2016-Jun-16 05:27N 29°24' W 093°38'0 0.0
2016-Jun-16 04:30N 29°24' W 093°38'0 0.0
2016-Jun-16 03:33N 29°24' W 093°38'0 0.0
2016-Jun-16 01:09N 29°24' W 093°38'0 0.0
2016-Jun-16 00:27N 29°24' W 093°38'0 0.1
2016-Jun-15 22:18N 29°24' W 093°38'0 0.0
2016-Jun-15 21:33N 29°24' W 093°38'0 0.0
2016-Jun-15 20:33N 29°24' W 093°38'0 0.0
2016-Jun-15 17:30N 29°24' W 093°38'17 0.5
2016-Jun-14 09:05N 29°07' W 093°40'  
Track history (hours):
 
Tides and Currents Weather Stations Pressure Air Temp Water Temp Dewpoint Dewpoint Depression Visibility Wind Speed Wind Dir Waves Ship Positions

Paramount Hamilton

Last reported at 2016-Jun-22 22:33 UTC. Time now 2016-Jun-24 22:14 UTC.
Position N 29°13' W 094°34'.

Length 250 m; draft 11.3 m.

Type: Tanker. MMSI: 235076274.

Date/timePositionNaut miles runAvg speedWind from/ knotsBaromVisibWave heightAir tempDewpointWater temp
2016-Jun-22 22:33N 29°13' W 094°34'0 0.0
2016-Jun-22 21:24N 29°13' W 094°34'0 0.1
2016-Jun-22 20:33N 29°13' W 094°34'0 0.0
2016-Jun-22 13:15N 29°13' W 094°34'0 0.0
2016-Jun-22 11:33N 29°13' W 094°34'  
2016-Jun-19 00:23N 29°14' W 093°40'1310.3
2016-Jun-18 23:09N 29°26' W 093°40'1911.7
2016-Jun-18 21:33N 29°42' W 093°51'9 8.6
2016-Jun-18 20:31N 29°49' W 093°58'8 8.1
2016-Jun-18 19:28N 29°56' W 093°52'5 5.3
2016-Jun-18 18:32N 29°60' W 093°56'0 0.2
2016-Jun-18 17:34N 29°60' W 093°56'0 0.0
2016-Jun-18 16:27N 29°60' W 093°56'0 0.0
2016-Jun-18 15:33N 29°60' W 093°56'0 0.0
2016-Jun-18 14:30N 29°60' W 093°56'0 0.0
2016-Jun-18 13:33N 29°60' W 093°56'0 0.0
2016-Jun-18 12:33N 29°60' W 093°56'0 0.0
2016-Jun-18 11:33N 29°60' W 093°56'0 0.0
2016-Jun-18 10:33N 29°60' W 093°56'0 0.0
2016-Jun-18 09:27N 29°60' W 093°56'0 0.0
2016-Jun-18 08:30N 29°60' W 093°56'0 0.0
2016-Jun-18 07:33N 29°60' W 093°56'0 0.0
2016-Jun-18 04:21N 29°60' W 093°56'0 0.0
2016-Jun-18 03:33N 29°60' W 093°56'0 0.0
2016-Jun-18 02:15N 29°60' W 093°56'0 0.0
2016-Jun-18 01:30N 29°60' W 093°56'0 0.0
2016-Jun-18 00:27N 29°60' W 093°56'0 0.0
2016-Jun-17 23:21N 29°60' W 093°56'0 0.0
2016-Jun-17 22:33N 29°60' W 093°56'0 0.0
2016-Jun-17 21:30N 29°60' W 093°56'0 0.0
2016-Jun-17 20:09N 29°60' W 093°56'0 0.0
2016-Jun-17 19:24N 29°60' W 093°56'0 0.0
2016-Jun-17 18:33N 29°60' W 093°56'0 0.0
2016-Jun-17 17:33N 29°60' W 093°56'0 0.0
2016-Jun-17 16:33N 29°60' W 093°56'0 0.0
2016-Jun-17 15:33N 29°60' W 093°56'0 0.0
2016-Jun-17 14:33N 29°60' W 093°56'0 0.0
2016-Jun-17 13:33N 29°60' W 093°56'0 0.0
2016-Jun-17 12:27N 29°59' W 093°56'0 0.0
2016-Jun-17 11:24N 29°60' W 093°56'0 0.0
2016-Jun-17 10:24N 29°60' W 093°56'0 0.0
2016-Jun-17 09:30N 29°60' W 093°56'0 0.0
2016-Jun-17 08:24N 29°60' W 093°56'0 0.0
2016-Jun-17 07:09N 29°60' W 093°56'0 0.0
2016-Jun-17 03:33N 29°60' W 093°56'0 0.0
2016-Jun-17 00:33N 29°60' W 093°56'0 0.0
2016-Jun-16 23:33N 29°60' W 093°56'0 0.0
2016-Jun-16 22:33N 29°60' W 093°56'1 0.6
2016-Jun-16 21:33N 29°59' W 093°55'4 4.4
2016-Jun-16 20:33N 29°56' W 093°52'6 5.8
2016-Jun-16 19:32N 29°51' W 093°57'6 5.9
2016-Jun-16 18:33N 29°46' W 093°55'8 8.0
2016-Jun-16 17:33N 29°39' W 093°50'10 9.9
2016-Jun-16 16:30N 29°31' W 093°42'7 7.4
2016-Jun-16 15:30N 29°24' W 093°39'1 0.7
2016-Jun-16 14:30N 29°24' W 093°38'0 0.0
2016-Jun-16 12:06N 29°24' W 093°38'0 0.0
2016-Jun-16 11:30N 29°24' W 093°38'0 0.0
2016-Jun-16 08:18N 29°24' W 093°38'0 0.0
2016-Jun-16 05:27N 29°24' W 093°38'0 0.0
2016-Jun-16 04:30N 29°24' W 093°38'0 0.0
2016-Jun-16 03:33N 29°24' W 093°38'0 0.0
2016-Jun-16 01:09N 29°24' W 093°38'0 0.0
2016-Jun-16 00:27N 29°24' W 093°38'0 0.1
2016-Jun-15 22:18N 29°24' W 093°38'0 0.0
2016-Jun-15 21:33N 29°24' W 093°38'0 0.0
2016-Jun-15 20:33N 29°24' W 093°38'0 0.0
2016-Jun-15 17:30N 29°24' W 093°38'17 0.5
2016-Jun-14 09:05N 29°07' W 093°40'  

Dump ship's entire track history